Time;durP1;ratioP1;P1;durP2;ratioP2;P2;SDS_P1;SDS_P2;PMS_P1;PMS_P2;Temp;Humidity;BMP_temperature;BMP_pressure;BME280_temperature;BME280_humidity;BME280_pressure;Samples;Min_cycle;Max_cycle;Signal;HPM_P1;HPM_P2
2021/10/08 00:00:25;;;;;;;;;;;;;;;;;;2107211;28;1324;-81
2021/10/08 00:01:26;;;;;;;;;;;;;;;;;;2107589;28;1486;-82
2021/10/08 00:02:28;;;;;;;;;;;;;;;;;;2112054;28;1364;-82
2021/10/08 00:03:28;;;;;;;;;;;;;;;;;;2115949;28;1751;-82
2021/10/08 00:04:30;;;;;;;;;;;;;;;;;;2115907;28;1861;-81
2021/10/08 00:05:31;;;;;;;;;;;;;;;;;;2107636;28;1517;-81
2021/10/08 00:06:33;;;;;;;;;;;;;;;;;;2107637;28;1317;-81
2021/10/08 00:07:35;;;;;;;;;;;;;;;;;;2115680;28;1246;-81
2021/10/08 00:08:39;;;;;;;;;;;;;;;;;;2107016;28;1957;-81
2021/10/08 00:09:40;;;;;;;;;;;;;;;;;;2116141;28;1695;-81
2021/10/08 00:10:41;;;;;;;;;;;;;;;;;;2115816;28;1758;-81
2021/10/08 00:11:42;;;;;;;;;;;;;;;;;;2116323;27;1264;-81
2021/10/08 00:12:44;;;;;;;;;;;;;;;;;;2124146;27;1572;-82
2021/10/08 00:13:46;;;;;;;;;;;;;;;;;;2107914;28;1701;-82
2021/10/08 00:14:46;;;;;;;;;;;;;;;;;;2106958;28;1680;-82
2021/10/08 00:15:48;;;;;;;;;;;;;;;;;;2107854;28;1700;-82
2021/10/08 00:16:49;;;;;;;;;;;;;;;;;;2115937;28;1537;-81
2021/10/08 00:17:51;;;;;;;;;;;;;;;;;;2115405;28;1684;-82
2021/10/08 00:18:52;;;;;;;;;;;;;;;;;;2115952;28;1519;-82
2021/10/08 00:19:53;;;;;;;;;;;;;;;;;;2115825;28;1552;-81
2021/10/08 00:20:54;;;;;;;;;;;;;;;;;;2122790;28;1555;-81
2021/10/08 00:21:56;;;;;;;;;;;;;;;;;;2115686;28;1720;-82
2021/10/08 00:22:56;;;;;;;;;;;;;;;;;;2114752;28;1639;-81
2021/10/08 00:24:00;;;;;;;;;;;;;;;;;;2115604;28;1692;-81
2021/10/08 00:25:00;;;;;;;;;;;;;;;;;;2099023;28;1450;-82
2021/10/08 00:26:02;;;;;;;;;;;;;;;;;;2099006;28;1538;-81
2021/10/08 00:27:03;;;;;;;;;;;;;;;;;;2107282;28;1526;-81
2021/10/08 00:28:05;;;;;;;;;;;;;;;;;;2107437;28;1984;-81
2021/10/08 00:29:06;;;;;;;;;;;;;;;;;;2115606;28;1554;-82
2021/10/08 00:30:08;;;;;;;;;;;;;;;;;;2107739;28;1862;-81
2021/10/08 00:31:08;;;;;;;;;;;;;;;;;;2115701;28;1505;-81
2021/10/08 00:32:10;;;;;;;;;;;;;;;;;;2116103;28;1608;-81
2021/10/08 00:33:11;;;;;;;;;;;;;;;;;;2115783;28;1209;-81
2021/10/08 00:34:13;;;;;;;;;;;;;;;;;;2115884;28;1529;-82
2021/10/08 00:35:14;;;;;;;;;;;;;;;;;;2123718;28;1308;-82
2021/10/08 00:36:16;;;;;;;;;;;;;;;;;;2124222;28;1261;-85
2021/10/08 00:37:16;;;;;;;;;;;;;;;;;;2120954;28;1648;-81
2021/10/08 00:38:18;;;;;;;;;;;;;;;;;;2107033;28;1246;-86
2021/10/08 00:39:20;;;;;;;;;;;;;;;;;;2107546;28;1423;-81
2021/10/08 00:40:23;;;;;;;;;;;;;;;;;;2115607;28;1323;-81
2021/10/08 00:41:24;;;;;;;;;;;;;;;;;;2115771;28;1569;-81
2021/10/08 00:42:28;;;;;;;;;;;;;;;;;;2115157;28;1241;-81
2021/10/08 00:43:28;;;;;;;;;;;;;;;;;;2115670;28;1576;-81
2021/10/08 00:44:31;;;;;;;;;;;;;;;;;;2107211;28;1371;-81
2021/10/08 00:45:32;;;;;;;;;;;;;;;;;;2109530;28;2023;-81
2021/10/08 00:46:34;;;;;;;;;;;;;;;;;;2107403;28;1338;-81
2021/10/08 00:47:34;;;;;;;;;;;;;;;;;;2108433;27;1336;-82
2021/10/08 00:48:36;;;;;;;;;;;;;;;;;;2124141;27;1902;-81
2021/10/08 00:49:37;;;;;;;;;;;;;;;;;;2115855;28;1520;-81
2021/10/08 00:50:39;;;;;;;;;;;;;;;;;;2115326;28;1641;-81
2021/10/08 00:51:40;;;;;;;;;;;;;;;;;;2117062;28;1677;-81
2021/10/08 00:52:42;;;;;;;;;;;;;;;;;;2116754;28;2017;-81
2021/10/08 00:53:43;;;;;;;;;;;;;;;;;;2125600;27;1697;-81
2021/10/08 00:54:46;;;;;;;;;;;;;;;;;;2126027;27;1724;-81
2021/10/08 00:55:48;;;;;;;;;;;;;;;;;;2117334;28;1349;-81
2021/10/08 00:56:50;;;;;;;;;;;;;;;;;;2109112;28;1297;-81
2021/10/08 00:57:51;;;;;;;;;;;;;;;;;;2109062;28;1205;-82
2021/10/08 00:58:53;;;;;;;;;;;;;;;;;;2117093;28;1434;-82
2021/10/08 00:59:53;;;;;;;;;;;;;;;;;;2108444;28;1547;-82
2021/10/08 01:00:55;;;;;;;;;;;;;;;;;;2108741;28;1699;-82
2021/10/08 01:01:56;;;;;;;;;;;;;;;;;;2100851;28;1447;-82
2021/10/08 01:02:58;;;;;;;;;;;;;;;;;;2100282;28;1566;-82
2021/10/08 01:03:59;;;;;;;;;;;;;;;;;;2108968;28;1246;-82
2021/10/08 01:05:01;;;;;;;;;;;;;;;;;;2108503;28;1600;-81
2021/10/08 01:06:02;;;;;;;;;;;;;;;;;;2108615;28;1478;-82
2021/10/08 01:07:04;;;;;;;;;;;;;;;;;;2100283;28;1395;-82
2021/10/08 01:08:05;;;;;;;;;;;;;;;;;;2108939;28;1661;-82
2021/10/08 01:09:07;;;;;;;;;;;;;;;;;;2108426;28;1977;-82
2021/10/08 01:10:09;;;;;;;;;;;;;;;;;;2109046;28;1330;-81
2021/10/08 01:11:11;;;;;;;;;;;;;;;;;;2117096;27;890;-82
2021/10/08 01:12:14;;;;;;;;;;;;;;;;;;2109093;28;1150;-82
2021/10/08 01:13:16;;;;;;;;;;;;;;;;;;2108998;28;1155;-82
2021/10/08 01:14:16;;;;;;;;;;;;;;;;;;2125337;27;1167;-83
2021/10/08 01:15:24;;;;;;;;;;;;;;;;;;2125634;27;1786;-82
2021/10/08 01:16:27;;;;;;;;;;;;;;;;;;2117435;27;1271;-82
2021/10/08 01:17:30;;;;;;;;;;;;;;;;;;2116768;27;1492;-82
2021/10/08 01:18:33;;;;;;;;;;;;;;;;;;2117506;27;1288;-82
2021/10/08 01:19:34;;;;;;;;;;;;;;;;;;2116932;28;1562;-82
2021/10/08 01:20:40;;;;;;;;;;;;;;;;;;2113990;28;1541;-81
2021/10/08 01:21:48;;;;;;;;;;;;;;;;;;2110150;28;1368;-81
2021/10/08 01:22:50;;;;;;;;;;;;;;;;;;2116465;28;1922;-81
2021/10/08 01:23:53;;;;;;;;;;;;;;;;;;2109190;27;1317;-81
2021/10/08 01:24:55;;;;;;;;;;;;;;;;;;2125568;27;1226;-81
2021/10/08 01:25:56;;;;;;;;;;;;;;;;;;2117195;28;1205;-81
2021/10/08 01:27:03;;;;;;;;;;;;;;;;;;2117649;27;1314;-81
2021/10/08 01:28:06;;;;;;;;;;;;;;;;;;2117335;27;1186;-81
2021/10/08 01:29:12;;;;;;;;;;;;;;;;;;2117938;27;1917;-81
2021/10/08 01:30:17;;;;;;;;;;;;;;;;;;2124718;27;1678;-84
2021/10/08 01:31:21;;;;;;;;;;;;;;;;;;2108872;28;1183;-81
2021/10/08 01:32:35;;;;;;;;;;;;;;;;;;2103633;28;1292;-81
2021/10/08 01:33:36;;;;;;;;;;;;;;;;;;2100488;28;1334;-81
2021/10/08 01:34:38;;;;;;;;;;;;;;;;;;2108178;28;1665;-81
2021/10/08 01:35:41;;;;;;;;;;;;;;;;;;2108729;28;1538;-81
2021/10/08 01:36:43;;;;;;;;;;;;;;;;;;2108314;28;1397;-81
2021/10/08 01:37:44;;;;;;;;;;;;;;;;;;2108414;28;1588;-81
2021/10/08 01:38:46;;;;;;;;;;;;;;;;;;2108074;28;1556;-82
2021/10/08 01:39:48;;;;;;;;;;;;;;;;;;2108864;28;1261;-82
2021/10/08 01:40:50;;;;;;;;;;;;;;;;;;2108422;28;1418;-81
2021/10/08 01:41:52;;;;;;;;;;;;;;;;;;2109077;28;1771;-81
2021/10/08 01:42:58;;;;;;;;;;;;;;;;;;2108508;28;1333;-82
2021/10/08 01:43:59;;;;;;;;;;;;;;;;;;2109064;28;1501;-81
2021/10/08 01:45:01;;;;;;;;;;;;;;;;;;2116749;28;1178;-81
2021/10/08 01:46:03;;;;;;;;;;;;;;;;;;2108704;28;1405;-81
2021/10/08 01:47:10;;;;;;;;;;;;;;;;;;2110039;28;1304;-81
2021/10/08 01:48:11;;;;;;;;;;;;;;;;;;2100356;28;1603;-81
2021/10/08 01:49:13;;;;;;;;;;;;;;;;;;2099939;28;1977;-81
2021/10/08 01:50:14;;;;;;;;;;;;;;;;;;2108457;28;1228;-81
2021/10/08 01:51:20;;;;;;;;;;;;;;;;;;2125276;27;1387;-82
2021/10/08 01:52:21;;;;;;;;;;;;;;;;;;2112425;28;2021;-82
2021/10/08 01:53:23;;;;;;;;;;;;;;;;;;2100600;28;1789;-82
2021/10/08 01:54:24;;;;;;;;;;;;;;;;;;2107574;28;1706;-81
2021/10/08 01:55:26;;;;;;;;;;;;;;;;;;2116878;28;1436;-81
2021/10/08 01:56:33;;;;;;;;;;;;;;;;;;2109099;28;1301;-82
2021/10/08 01:57:37;;;;;;;;;;;;;;;;;;2109449;28;2067;-81
2021/10/08 01:58:39;;;;;;;;;;;;;;;;;;2116759;28;1676;-81
2021/10/08 01:59:40;;;;;;;;;;;;;;;;;;2108537;28;1262;-82
2021/10/08 02:00:44;;;;;;;;;;;;;;;;;;2104329;28;2072;-82
2021/10/08 02:02:02;;;;;;;;;;;;;;;;;;2110878;28;1316;-82
2021/10/08 02:03:04;;;;;;;;;;;;;;;;;;2107718;28;1482;-82
2021/10/08 02:04:05;;;;;;;;;;;;;;;;;;2108747;28;1352;-81
2021/10/08 02:05:07;;;;;;;;;;;;;;;;;;2108249;28;1947;-81
2021/10/08 02:06:08;;;;;;;;;;;;;;;;;;2117450;27;1401;-82
2021/10/08 02:07:14;;;;;;;;;;;;;;;;;;2116528;28;1388;-82
2021/10/08 02:08:16;;;;;;;;;;;;;;;;;;2108374;28;1624;-82
2021/10/08 02:09:17;;;;;;;;;;;;;;;;;;2116700;28;1971;-82
2021/10/08 02:10:18;;;;;;;;;;;;;;;;;;2116735;28;1852;-82
2021/10/08 02:11:20;;;;;;;;;;;;;;;;;;2116892;28;1625;-81
2021/10/08 02:12:22;;;;;;;;;;;;;;;;;;2108102;28;1519;-82
2021/10/08 02:13:22;;;;;;;;;;;;;;;;;;2108683;28;1274;-82
2021/10/08 02:14:25;;;;;;;;;;;;;;;;;;2108600;28;1647;-82
2021/10/08 02:15:27;;;;;;;;;;;;;;;;;;2108762;28;1415;-81
2021/10/08 02:16:28;;;;;;;;;;;;;;;;;;2108230;28;1531;-81
2021/10/08 02:17:38;;;;;;;;;;;;;;;;;;2109560;28;934;-82
2021/10/08 02:18:39;;;;;;;;;;;;;;;;;;2099802;28;1617;-81
2021/10/08 02:19:41;;;;;;;;;;;;;;;;;;2099854;28;1707;-82
2021/10/08 02:20:41;;;;;;;;;;;;;;;;;;2111213;28;1710;-81
2021/10/08 02:21:43;;;;;;;;;;;;;;;;;;2116505;28;1619;-81
2021/10/08 02:22:48;;;;;;;;;;;;;;;;;;2116972;27;1241;-82
2021/10/08 02:23:52;;;;;;;;;;;;;;;;;;2117091;28;1338;-81
2021/10/08 02:24:53;;;;;;;;;;;;;;;;;;2116473;28;1332;-82
2021/10/08 02:25:54;;;;;;;;;;;;;;;;;;2117222;28;1643;-82
2021/10/08 02:26:56;;;;;;;;;;;;;;;;;;2115930;28;1577;-82
2021/10/08 02:28:02;;;;;;;;;;;;;;;;;;2116637;28;1297;-81
2021/10/08 02:29:02;;;;;;;;;;;;;;;;;;2108107;28;1977;-81
2021/10/08 02:30:07;;;;;;;;;;;;;;;;;;2108705;28;1678;-82
2021/10/08 02:31:09;;;;;;;;;;;;;;;;;;2108023;28;1486;-82
2021/10/08 02:32:11;;;;;;;;;;;;;;;;;;2108269;28;2035;-82
2021/10/08 02:33:11;;;;;;;;;;;;;;;;;;2107512;28;1373;-82
2021/10/08 02:34:13;;;;;;;;;;;;;;;;;;2107972;28;1464;-82
2021/10/08 02:35:14;;;;;;;;;;;;;;;;;;2107779;28;1285;-83
2021/10/08 02:36:16;;;;;;;;;;;;;;;;;;2099697;28;1479;-85
2021/10/08 02:37:16;;;;;;;;;;;;;;;;;;2103681;28;1658;-83
2021/10/08 02:38:20;;;;;;;;;;;;;;;;;;2116486;28;1272;-83
2021/10/08 02:39:22;;;;;;;;;;;;;;;;;;2124786;27;1194;-82
2021/10/08 02:40:23;;;;;;;;;;;;;;;;;;2116669;28;1441;-82
2021/10/08 02:41:25;;;;;;;;;;;;;;;;;;2116637;28;1319;-82
2021/10/08 02:42:25;;;;;;;;;;;;;;;;;;2111514;28;1311;-83
2021/10/08 02:43:28;;;;;;;;;;;;;;;;;;2116371;28;1226;-82
2021/10/08 02:44:29;;;;;;;;;;;;;;;;;;2099495;28;1394;-82
2021/10/08 02:45:30;;;;;;;;;;;;;;;;;;2102067;28;1790;-83
2021/10/08 02:46:31;;;;;;;;;;;;;;;;;;2116521;28;1407;-82
2021/10/08 02:47:33;;;;;;;;;;;;;;;;;;2116483;28;1980;-82
2021/10/08 02:48:35;;;;;;;;;;;;;;;;;;2116265;28;920;-82
2021/10/08 02:49:37;;;;;;;;;;;;;;;;;;2116418;28;1901;-82
2021/10/08 02:50:37;;;;;;;;;;;;;;;;;;2115892;28;1298;-82
2021/10/08 02:51:43;;;;;;;;;;;;;;;;;;2116382;28;1767;-82
2021/10/08 02:52:44;;;;;;;;;;;;;;;;;;2099555;28;1633;-82
2021/10/08 02:53:49;;;;;;;;;;;;;;;;;;2108534;28;1623;-82
2021/10/08 02:54:50;;;;;;;;;;;;;;;;;;2107472;28;1266;-82
2021/10/08 02:55:51;;;;;;;;;;;;;;;;;;2107896;28;1293;-82
2021/10/08 02:56:53;;;;;;;;;;;;;;;;;;2116053;28;1670;-82
2021/10/08 02:57:54;;;;;;;;;;;;;;;;;;2116606;28;1358;-82
2021/10/08 02:58:56;;;;;;;;;;;;;;;;;;2116269;28;1768;-82
2021/10/08 02:59:57;;;;;;;;;;;;;;;;;;2116528;28;1455;-82
2021/10/08 03:00:59;;;;;;;;;;;;;;;;;;2107677;28;1538;-82
2021/10/08 03:01:59;;;;;;;;;;;;;;;;;;2108076;28;1258;-83
2021/10/08 03:03:01;;;;;;;;;;;;;;;;;;2115824;28;1354;-82
2021/10/08 03:04:04;;;;;;;;;;;;;;;;;;2107581;28;1245;-83
2021/10/08 03:05:06;;;;;;;;;;;;;;;;;;2107902;28;1634;-82
2021/10/08 03:06:08;;;;;;;;;;;;;;;;;;2099459;28;1310;-82
2021/10/08 03:07:10;;;;;;;;;;;;;;;;;;2101790;28;1420;-82
2021/10/08 03:08:10;;;;;;;;;;;;;;;;;;2107575;28;1238;-82
2021/10/08 03:09:15;;;;;;;;;;;;;;;;;;2107870;28;1980;-82
2021/10/08 03:10:18;;;;;;;;;;;;;;;;;;2107883;28;1278;-83
2021/10/08 03:11:20;;;;;;;;;;;;;;;;;;2108115;28;1373;-82
2021/10/08 03:12:21;;;;;;;;;;;;;;;;;;2119068;27;1378;-83
2021/10/08 03:13:23;;;;;;;;;;;;;;;;;;2107897;28;1238;-82
2021/10/08 03:14:26;;;;;;;;;;;;;;;;;;2100091;28;943;-82
2021/10/08 03:15:27;;;;;;;;;;;;;;;;;;2108215;28;1336;-82
2021/10/08 03:16:31;;;;;;;;;;;;;;;;;;2116316;28;1339;-83
2021/10/08 03:17:32;;;;;;;;;;;;;;;;;;2116514;27;1385;-82
2021/10/08 03:18:35;;;;;;;;;;;;;;;;;;2116392;28;1553;-82
2021/10/08 03:19:40;;;;;;;;;;;;;;;;;;2116727;28;1368;-82
2021/10/08 03:20:41;;;;;;;;;;;;;;;;;;2116432;28;1414;-82
2021/10/08 03:21:44;;;;;;;;;;;;;;;;;;2108050;28;1079;-82
2021/10/08 03:22:46;;;;;;;;;;;;;;;;;;2108374;28;1269;-83
2021/10/08 03:23:48;;;;;;;;;;;;;;;;;;2116340;28;1426;-82
2021/10/08 03:24:50;;;;;;;;;;;;;;;;;;2115555;28;1200;-82
2021/10/08 03:25:52;;;;;;;;;;;;;;;;;;2116239;27;1448;-81
2021/10/08 03:26:54;;;;;;;;;;;;;;;;;;2124098;27;1383;-82
2021/10/08 03:27:54;;;;;;;;;;;;;;;;;;2107834;28;1605;-81
2021/10/08 03:28:56;;;;;;;;;;;;;;;;;;2107625;28;1581;-81
2021/10/08 03:29:57;;;;;;;;;;;;;;;;;;2107958;28;1913;-81
2021/10/08 03:30:59;;;;;;;;;;;;;;;;;;2107618;28;1499;-82
2021/10/08 03:32:01;;;;;;;;;;;;;;;;;;2107809;28;1334;-83
2021/10/08 03:33:02;;;;;;;;;;;;;;;;;;2107758;28;1392;-82
2021/10/08 03:34:05;;;;;;;;;;;;;;;;;;2107924;28;1401;-82
2021/10/08 03:35:06;;;;;;;;;;;;;;;;;;2107443;28;1307;-82
2021/10/08 03:36:13;;;;;;;;;;;;;;;;;;2113549;28;1317;-81
2021/10/08 03:37:17;;;;;;;;;;;;;;;;;;2107975;28;2108;-81
2021/10/08 03:38:20;;;;;;;;;;;;;;;;;;2108131;28;1453;-84
2021/10/08 03:39:23;;;;;;;;;;;;;;;;;;2107222;28;1350;-83
2021/10/08 03:40:28;;;;;;;;;;;;;;;;;;2115963;28;1557;-81
2021/10/08 03:41:29;;;;;;;;;;;;;;;;;;2110804;28;1532;-82
2021/10/08 03:42:30;;;;;;;;;;;;;;;;;;2115654;28;1732;-82
2021/10/08 03:43:32;;;;;;;;;;;;;;;;;;2116151;28;1498;-82
2021/10/08 03:44:37;;;;;;;;;;;;;;;;;;2107706;28;1632;-82
2021/10/08 03:45:45;;;;;;;;;;;;;;;;;;2108258;28;1293;-82
2021/10/08 03:46:50;;;;;;;;;;;;;;;;;;2109328;28;1564;-82
2021/10/08 03:47:57;;;;;;;;;;;;;;;;;;2116754;28;1539;-82
2021/10/08 03:49:13;;;;;;;;;;;;;;;;;;2116125;28;1313;-82
2021/10/08 03:50:13;;;;;;;;;;;;;;;;;;2116510;28;2014;-83
2021/10/08 03:51:15;;;;;;;;;;;;;;;;;;2107588;28;1301;-82
2021/10/08 03:52:16;;;;;;;;;;;;;;;;;;2110548;28;1491;-83
2021/10/08 03:53:18;;;;;;;;;;;;;;;;;;2114866;28;1598;-82
2021/10/08 03:54:20;;;;;;;;;;;;;;;;;;2107864;28;1421;-82
2021/10/08 03:55:22;;;;;;;;;;;;;;;;;;2107464;28;1498;-82
2021/10/08 03:56:25;;;;;;;;;;;;;;;;;;2107082;28;1340;-82
2021/10/08 03:57:26;;;;;;;;;;;;;;;;;;2115263;28;1244;-82
2021/10/08 03:58:27;;;;;;;;;;;;;;;;;;2124133;28;1446;-82
2021/10/08 03:59:30;;;;;;;;;;;;;;;;;;2115920;28;1576;-82
2021/10/08 04:00:31;;;;;;;;;;;;;;;;;;2107147;28;1434;-82
2021/10/08 04:01:43;;;;;;;;;;;;;;;;;;2109537;28;1810;-81
2021/10/08 04:02:44;;;;;;;;;;;;;;;;;;2107545;28;1607;-82
2021/10/08 04:03:49;;;;;;;;;;;;;;;;;;2108020;28;1380;-81
2021/10/08 04:04:51;;;;;;;;;;;;;;;;;;2107654;28;1250;-82
2021/10/08 04:05:53;;;;;;;;;;;;;;;;;;2116492;28;1500;-82
2021/10/08 04:06:55;;;;;;;;;;;;;;;;;;2107640;28;1192;-83
2021/10/08 04:07:57;;;;;;;;;;;;;;;;;;2107665;28;1304;-82
2021/10/08 04:08:58;;;;;;;;;;;;;;;;;;2116060;28;1348;-82
2021/10/08 04:10:00;;;;;;;;;;;;;;;;;;2115855;28;1905;-82
2021/10/08 04:11:02;;;;;;;;;;;;;;;;;;2108756;28;2020;-82
2021/10/08 04:12:08;;;;;;;;;;;;;;;;;;2109673;28;1375;-82
2021/10/08 04:13:09;;;;;;;;;;;;;;;;;;2108222;28;1281;-82
2021/10/08 04:14:14;;;;;;;;;;;;;;;;;;2107769;28;1440;-83
2021/10/08 04:15:14;;;;;;;;;;;;;;;;;;2107284;28;1690;-82
2021/10/08 04:16:16;;;;;;;;;;;;;;;;;;2106872;28;1333;-83
2021/10/08 04:17:18;;;;;;;;;;;;;;;;;;2108054;28;1593;-82
2021/10/08 04:18:20;;;;;;;;;;;;;;;;;;2106833;28;1726;-82
2021/10/08 04:19:21;;;;;;;;;;;;;;;;;;2108989;28;1438;-82
2021/10/08 04:20:24;;;;;;;;;;;;;;;;;;2108490;28;1344;-82
2021/10/08 04:21:25;;;;;;;;;;;;;;;;;;2107455;28;1258;-82
2021/10/08 04:22:26;;;;;;;;;;;;;;;;;;2115596;28;1411;-82
2021/10/08 04:23:28;;;;;;;;;;;;;;;;;;2116080;28;1417;-82
2021/10/08 04:24:29;;;;;;;;;;;;;;;;;;2107596;28;1171;-81
2021/10/08 04:25:31;;;;;;;;;;;;;;;;;;2104389;28;1989;-79
2021/10/08 04:26:32;;;;;;;;;;;;;;;;;;2108232;28;1660;-80
2021/10/08 04:27:35;;;;;;;;;;;;;;;;;;2117698;28;1328;-80
2021/10/08 04:28:39;;;;;;;;;;;;;;;;;;2108590;28;1648;-80
2021/10/08 04:29:40;;;;;;;;;;;;;;;;;;2100910;28;1909;-79
2021/10/08 04:30:41;;;;;;;;;;;;;;;;;;2112743;28;1936;-79
2021/10/08 04:31:43;;;;;;;;;;;;;;;;;;2117849;28;1368;-79
2021/10/08 04:32:45;;;;;;;;;;;;;;;;;;2108767;28;1367;-79
2021/10/08 04:33:46;;;;;;;;;;;;;;;;;;2100693;28;1363;-79
2021/10/08 04:34:48;;;;;;;;;;;;;;;;;;2117289;28;1432;-79
2021/10/08 04:35:48;;;;;;;;;;;;;;;;;;2116923;28;1281;-80
2021/10/08 04:36:50;;;;;;;;;;;;;;;;;;2108971;28;1326;-79
2021/10/08 04:37:51;;;;;;;;;;;;;;;;;;2108967;28;1257;-80
2021/10/08 04:38:53;;;;;;;;;;;;;;;;;;2117241;28;1505;-79
2021/10/08 04:39:53;;;;;;;;;;;;;;;;;;2117119;28;1419;-86
2021/10/08 04:40:55;;;;;;;;;;;;;;;;;;2116835;28;1292;-80
2021/10/08 04:41:56;;;;;;;;;;;;;;;;;;2124924;27;1545;-80
2021/10/08 04:43:00;;;;;;;;;;;;;;;;;;2108003;28;1569;-80
2021/10/08 04:44:01;;;;;;;;;;;;;;;;;;2111666;28;1359;-79
2021/10/08 04:45:03;;;;;;;;;;;;;;;;;;2108566;28;1381;-79
2021/10/08 04:46:05;;;;;;;;;;;;;;;;;;2110232;28;1311;-79
2021/10/08 04:47:10;;;;;;;;;;;;;;;;;;2117473;27;1431;-80
2021/10/08 04:48:12;;;;;;;;;;;;;;;;;;2117848;27;1727;-79
2021/10/08 04:49:13;;;;;;;;;;;;;;;;;;2114459;28;1326;-79
2021/10/08 04:50:15;;;;;;;;;;;;;;;;;;2117113;28;1910;-83
2021/10/08 04:51:17;;;;;;;;;;;;;;;;;;2115252;27;1475;-80
2021/10/08 04:52:19;;;;;;;;;;;;;;;;;;2113461;28;1881;-80
2021/10/08 04:53:22;;;;;;;;;;;;;;;;;;2109263;28;1234;-79
2021/10/08 04:54:26;;;;;;;;;;;;;;;;;;2109089;28;1473;-79
2021/10/08 04:55:26;;;;;;;;;;;;;;;;;;2116993;27;2018;-79
2021/10/08 04:56:32;;;;;;;;;;;;;;;;;;2117130;28;1661;-79
2021/10/08 04:57:34;;;;;;;;;;;;;;;;;;2109660;28;1983;-79
2021/10/08 04:58:38;;;;;;;;;;;;;;;;;;2108622;28;1679;-79
2021/10/08 04:59:39;;;;;;;;;;;;;;;;;;2110917;28;1386;-79
2021/10/08 05:00:41;;;;;;;;;;;;;;;;;;2108680;28;1604;-79
2021/10/08 05:01:42;;;;;;;;;;;;;;;;;;2109157;28;1613;-79
2021/10/08 05:02:44;;;;;;;;;;;;;;;;;;2113473;28;2116;-79
2021/10/08 05:03:45;;;;;;;;;;;;;;;;;;2108794;28;1719;-79
2021/10/08 05:04:47;;;;;;;;;;;;;;;;;;2110706;27;1363;-79
2021/10/08 05:05:50;;;;;;;;;;;;;;;;;;2117275;28;1766;-79
2021/10/08 05:06:55;;;;;;;;;;;;;;;;;;2125558;27;1411;-80
2021/10/08 05:07:55;;;;;;;;;;;;;;;;;;2109057;28;1518;-79
2021/10/08 05:08:57;;;;;;;;;;;;;;;;;;2108605;28;1288;-79
2021/10/08 05:09:58;;;;;;;;;;;;;;;;;;2108925;28;1973;-81
2021/10/08 05:11:00;;;;;;;;;;;;;;;;;;2115029;28;1438;-79
2021/10/08 05:12:03;;;;;;;;;;;;;;;;;;2109190;28;1341;-79
2021/10/08 05:13:04;;;;;;;;;;;;;;;;;;2116808;28;1304;-79
2021/10/08 05:14:10;;;;;;;;;;;;;;;;;;2108923;28;1229;-79
2021/10/08 05:15:14;;;;;;;;;;;;;;;;;;2109849;28;1821;-81
2021/10/08 05:16:15;;;;;;;;;;;;;;;;;;2117118;28;1583;-80
2021/10/08 05:17:16;;;;;;;;;;;;;;;;;;2121756;27;1177;-79
2021/10/08 05:18:18;;;;;;;;;;;;;;;;;;2114761;28;1443;-79
2021/10/08 05:19:20;;;;;;;;;;;;;;;;;;2117278;28;1553;-79
2021/10/08 05:20:28;;;;;;;;;;;;;;;;;;2109387;28;1275;-79
2021/10/08 05:21:29;;;;;;;;;;;;;;;;;;2108894;28;1415;-79
2021/10/08 05:22:30;;;;;;;;;;;;;;;;;;2105470;28;2118;-79
2021/10/08 05:23:33;;;;;;;;;;;;;;;;;;2100292;28;1851;-80
2021/10/08 05:24:33;;;;;;;;;;;;;;;;;;2108702;28;1406;-81
2021/10/08 05:25:35;;;;;;;;;;;;;;;;;;2116622;28;1517;-80
2021/10/08 05:26:36;;;;;;;;;;;;;;;;;;2117050;28;1324;-80
2021/10/08 05:27:38;;;;;;;;;;;;;;;;;;2114782;28;1399;-80
2021/10/08 05:28:42;;;;;;;;;;;;;;;;;;2108994;28;1249;-80
2021/10/08 05:29:46;;;;;;;;;;;;;;;;;;2109253;28;1495;-80
2021/10/08 05:30:47;;;;;;;;;;;;;;;;;;2113306;28;1983;-80
2021/10/08 05:31:51;;;;;;;;;;;;;;;;;;2117504;28;1675;-80
2021/10/08 05:32:52;;;;;;;;;;;;;;;;;;2114026;28;1393;-80
2021/10/08 05:33:55;;;;;;;;;;;;;;;;;;2117285;27;1819;-80
2021/10/08 05:34:58;;;;;;;;;;;;;;;;;;2110906;28;1729;-80
2021/10/08 05:36:00;;;;;;;;;;;;;;;;;;2115244;28;1258;-80
2021/10/08 05:37:01;;;;;;;;;;;;;;;;;;2115127;28;1696;-80
2021/10/08 05:38:06;;;;;;;;;;;;;;;;;;2116083;27;1450;-80
2021/10/08 05:39:08;;;;;;;;;;;;;;;;;;2109412;28;1561;-80
2021/10/08 05:40:11;;;;;;;;;;;;;;;;;;2100105;28;1204;-80
2021/10/08 05:41:14;;;;;;;;;;;;;;;;;;2117367;27;1762;-81
2021/10/08 05:42:17;;;;;;;;;;;;;;;;;;2111357;28;1526;-80
2021/10/08 05:43:19;;;;;;;;;;;;;;;;;;2108381;28;1720;-80
2021/10/08 05:44:23;;;;;;;;;;;;;;;;;;2104784;28;1530;-80
2021/10/08 05:45:26;;;;;;;;;;;;;;;;;;2107650;28;1365;-80
2021/10/08 05:46:27;;;;;;;;;;;;;;;;;;2108604;28;1338;-79
2021/10/08 05:47:28;;;;;;;;;;;;;;;;;;2113336;28;2034;-79
2021/10/08 05:48:30;;;;;;;;;;;;;;;;;;2108251;28;1637;-79
2021/10/08 05:49:31;;;;;;;;;;;;;;;;;;2108174;28;1300;-80
2021/10/08 05:50:33;;;;;;;;;;;;;;;;;;2108516;28;1976;-80
2021/10/08 05:51:34;;;;;;;;;;;;;;;;;;2108552;28;1331;-79
2021/10/08 05:52:36;;;;;;;;;;;;;;;;;;2113602;27;1369;-80
2021/10/08 05:53:39;;;;;;;;;;;;;;;;;;2116996;28;1392;-79
2021/10/08 05:54:41;;;;;;;;;;;;;;;;;;2108621;28;1325;-79
2021/10/08 05:55:42;;;;;;;;;;;;;;;;;;2112155;28;1893;-79
2021/10/08 05:56:43;;;;;;;;;;;;;;;;;;2116175;28;1282;-79
2021/10/08 05:57:45;;;;;;;;;;;;;;;;;;2120072;27;1659;-79
2021/10/08 05:58:45;;;;;;;;;;;;;;;;;;2116742;28;1673;-79
2021/10/08 05:59:48;;;;;;;;;;;;;;;;;;2115727;28;1709;-79
2021/10/08 06:00:50;;;;;;;;;;;;;;;;;;2112473;27;1170;-79
2021/10/08 06:01:52;;;;;;;;;;;;;;;;;;2116491;28;2072;-83
2021/10/08 06:02:53;;;;;;;;;;;;;;;;;;2116785;28;1453;-79
2021/10/08 06:04:01;;;;;;;;;;;;;;;;;;2117573;27;1372;-79
2021/10/08 06:05:02;;;;;;;;;;;;;;;;;;2116608;28;1526;-79
2021/10/08 06:06:04;;;;;;;;;;;;;;;;;;2116748;28;2050;-79
2021/10/08 06:07:08;;;;;;;;;;;;;;;;;;2108345;28;1438;-79
2021/10/08 06:08:09;;;;;;;;;;;;;;;;;;2108714;28;1376;-79
2021/10/08 06:09:14;;;;;;;;;;;;;;;;;;2108725;28;1211;-79
2021/10/08 06:10:15;;;;;;;;;;;;;;;;;;2099555;28;1910;-81
2021/10/08 06:11:18;;;;;;;;;;;;;;;;;;2092522;28;1267;-79
2021/10/08 06:12:20;;;;;;;;;;;;;;;;;;2104049;28;1350;-79
2021/10/08 06:13:23;;;;;;;;;;;;;;;;;;2108254;28;1280;-79
2021/10/08 06:14:24;;;;;;;;;;;;;;;;;;2108258;28;1191;-79
2021/10/08 06:15:28;;;;;;;;;;;;;;;;;;2108457;28;2099;-79
2021/10/08 06:16:31;;;;;;;;;;;;;;;;;;2108113;28;1434;-79
2021/10/08 06:17:33;;;;;;;;;;;;;;;;;;2116819;27;1430;-79
2021/10/08 06:18:36;;;;;;;;;;;;;;;;;;2108362;28;1356;-79
2021/10/08 06:19:40;;;;;;;;;;;;;;;;;;2108851;28;1718;-79
2021/10/08 06:20:42;;;;;;;;;;;;;;;;;;2111904;28;1313;-79
2021/10/08 06:21:47;;;;;;;;;;;;;;;;;;2108455;28;1466;-79
2021/10/08 06:22:49;;;;;;;;;;;;;;;;;;2107813;28;2116;-79
2021/10/08 06:23:54;;;;;;;;;;;;;;;;;;2109299;28;1320;-79
2021/10/08 06:24:56;;;;;;;;;;;;;;;;;;2099558;28;1391;-80
2021/10/08 06:25:58;;;;;;;;;;;;;;;;;;2097143;28;1926;-79
2021/10/08 06:27:00;;;;;;;;;;;;;;;;;;2108075;28;1361;-80
2021/10/08 06:28:02;;;;;;;;;;;;;;;;;;2112645;28;1520;-79
2021/10/08 06:29:05;;;;;;;;;;;;;;;;;;2108373;28;1328;-79
2021/10/08 06:30:09;;;;;;;;;;;;;;;;;;2100127;28;1183;-79
2021/10/08 06:31:12;;;;;;;;;;;;;;;;;;2108526;28;1906;-79
2021/10/08 06:32:19;;;;;;;;;;;;;;;;;;2116125;28;2009;-79
2021/10/08 06:33:21;;;;;;;;;;;;;;;;;;2116834;28;1400;-79
2021/10/08 06:34:22;;;;;;;;;;;;;;;;;;2116200;28;1204;-79
2021/10/08 06:35:25;;;;;;;;;;;;;;;;;;2113201;27;1667;-79
2021/10/08 06:36:29;;;;;;;;;;;;;;;;;;2108321;28;1252;-79
2021/10/08 06:37:30;;;;;;;;;;;;;;;;;;2113502;28;1398;-79
2021/10/08 06:38:34;;;;;;;;;;;;;;;;;;2116521;28;1843;-79
2021/10/08 06:39:37;;;;;;;;;;;;;;;;;;2111589;27;1391;-80
2021/10/08 06:40:39;;;;;;;;;;;;;;;;;;2107219;28;1874;-79
2021/10/08 06:41:44;;;;;;;;;;;;;;;;;;2112705;27;1407;-80
2021/10/08 06:42:51;;;;;;;;;;;;;;;;;;2116451;27;1461;-80
2021/10/08 06:44:05;;;;;;;;;;;;;;;;;;2108817;28;1473;-81
2021/10/08 06:45:08;;;;;;;;;;;;;;;;;;2106821;28;1572;-80
2021/10/08 06:46:10;;;;;;;;;;;;;;;;;;2115709;28;2107;-79
2021/10/08 06:47:11;;;;;;;;;;;;;;;;;;2116325;28;1730;-79
2021/10/08 06:48:15;;;;;;;;;;;;;;;;;;2114696;28;1822;-79
2021/10/08 06:49:19;;;;;;;;;;;;;;;;;;2116789;28;1392;-80
2021/10/08 06:50:20;;;;;;;;;;;;;;;;;;2115215;28;1295;-80
2021/10/08 06:51:22;;;;;;;;;;;;;;;;;;2125266;27;1918;-80
2021/10/08 06:52:23;;;;;;;;;;;;;;;;;;2124604;27;1229;-80
2021/10/08 06:53:25;;;;;;;;;;;;;;;;;;2108191;28;1778;-79
2021/10/08 06:54:27;;;;;;;;;;;;;;;;;;2116649;28;1210;-80
2021/10/08 06:55:30;;;;;;;;;;;;;;;;;;2120144;27;1638;-81
2021/10/08 06:56:33;;;;;;;;;;;;;;;;;;2110258;27;1716;-81
2021/10/08 06:57:42;;;;;;;;;;;;;;;;;;2107458;28;2054;-79
2021/10/08 06:58:43;;;;;;;;;;;;;;;;;;2107841;27;1457;-80
2021/10/08 06:59:45;;;;;;;;;;;;;;;;;;2116400;28;1366;-80
2021/10/08 07:00:47;;;;;;;;;;;;;;;;;;2116702;27;2035;-80
2021/10/08 07:01:50;;;;;;;;;;;;;;;;;;2110118;28;1402;-80
2021/10/08 07:02:53;;;;;;;;;;;;;;;;;;2116423;27;1389;-80
2021/10/08 07:03:59;;;;;;;;;;;;;;;;;;2116772;27;1694;-80
2021/10/08 07:05:02;;;;;;;;;;;;;;;;;;2124645;27;1508;-79
2021/10/08 07:06:03;;;;;;;;;;;;;;;;;;2109921;28;1532;-80
2021/10/08 07:07:05;;;;;;;;;;;;;;;;;;2117854;27;2092;-79
2021/10/08 07:08:36;;;;;;;;;;;;;;;;;;2109912;28;1549;-79
2021/10/08 07:09:37;;;;;;;;;;;;;;;;;;2116155;28;1408;-80
2021/10/08 07:10:40;;;;;;;;;;;;;;;;;;2110834;28;1292;-81
2021/10/08 07:11:41;;;;;;;;;;;;;;;;;;2124510;27;905;-79
2021/10/08 07:12:43;;;;;;;;;;;;;;;;;;2116048;28;1244;-79
2021/10/08 07:13:45;;;;;;;;;;;;;;;;;;2107986;28;1762;-79